createdAt,value
2023-05-22T00:00:21.485Z,22.75
2023-05-22T00:01:21.477Z,22.78
2023-05-22T00:02:21.527Z,22.79
2023-05-22T00:03:21.568Z,22.81
2023-05-22T00:04:21.779Z,22.81
2023-05-22T00:05:21.646Z,22.82
2023-05-22T00:06:21.645Z,22.82
2023-05-22T00:07:21.689Z,22.83
2023-05-22T00:08:21.740Z,22.83
2023-05-22T00:09:21.773Z,22.83
2023-05-22T00:10:21.825Z,22.83
2023-05-22T00:11:21.867Z,22.82
2023-05-22T00:12:21.920Z,22.82
2023-05-22T00:13:21.988Z,22.82
2023-05-22T00:14:22.029Z,22.81
2023-05-22T00:15:22.059Z,22.82
2023-05-22T00:16:22.162Z,22.81
2023-05-22T00:17:22.336Z,22.81
2023-05-22T00:18:22.202Z,22.82
2023-05-22T00:19:22.321Z,22.81
2023-05-22T00:20:22.301Z,22.80
2023-05-22T00:21:22.343Z,22.80
2023-05-22T00:22:22.417Z,22.80
2023-05-22T00:23:22.455Z,22.79
2023-05-22T00:24:22.513Z,22.79
2023-05-22T00:25:22.568Z,22.79
2023-05-22T00:26:22.617Z,22.79
2023-05-22T00:27:22.690Z,22.78
2023-05-22T00:28:22.715Z,22.78
2023-05-22T00:29:22.787Z,22.78
2023-05-22T00:30:22.875Z,22.78
2023-05-22T00:31:22.875Z,22.77
2023-05-22T00:32:22.997Z,22.77
2023-05-22T00:33:22.982Z,22.77
2023-05-22T00:34:23.110Z,22.76
2023-05-22T00:35:23.100Z,22.76
2023-05-22T00:36:23.156Z,22.75
2023-05-22T00:37:23.246Z,22.75
2023-05-22T00:38:23.261Z,22.74
2023-05-22T00:39:23.314Z,22.75
2023-05-22T00:40:23.366Z,22.73
2023-05-22T00:41:23.421Z,22.74
2023-05-22T00:42:23.469Z,22.73
2023-05-22T00:43:23.526Z,22.73
2023-05-22T00:44:23.587Z,22.72
2023-05-22T00:45:23.666Z,22.72
2023-05-22T00:46:23.752Z,22.72
2023-05-22T00:47:23.905Z,22.71
2023-05-22T00:48:23.810Z,22.72
2023-05-22T00:49:23.872Z,22.71
2023-05-22T00:50:23.949Z,22.71
2023-05-22T00:51:23.997Z,22.71
2023-05-22T00:52:24.062Z,22.71
2023-05-22T00:53:24.122Z,22.71
2023-05-22T00:54:24.193Z,22.71
2023-05-22T00:55:24.240Z,22.70
2023-05-22T00:56:24.286Z,22.69
2023-05-22T00:57:24.338Z,22.69
2023-05-22T00:58:24.400Z,22.69
2023-05-22T00:59:24.457Z,22.69
2023-05-22T01:00:24.509Z,22.68
2023-05-22T01:01:24.746Z,22.67
2023-05-22T01:02:24.629Z,22.67
2023-05-22T01:03:24.715Z,22.67
2023-05-22T01:04:24.708Z,22.67
2023-05-22T01:05:24.767Z,22.67
2023-05-22T01:06:24.823Z,22.67
2023-05-22T01:07:24.884Z,22.66
2023-05-22T01:08:24.948Z,22.67
2023-05-22T01:09:25.017Z,22.67
2023-05-22T01:10:25.025Z,22.66
2023-05-22T01:11:25.088Z,22.65
2023-05-22T01:12:25.124Z,22.66
2023-05-22T01:13:25.185Z,22.65
2023-05-22T01:14:25.221Z,22.65
2023-05-22T01:15:25.250Z,22.64
2023-05-22T01:16:25.429Z,22.63
2023-05-22T01:17:25.365Z,22.63
2023-05-22T01:18:25.354Z,22.63
2023-05-22T01:19:25.456Z,22.63
2023-05-22T01:20:25.445Z,22.62
2023-05-22T01:21:25.535Z,22.62
2023-05-22T01:22:25.571Z,22.62
2023-05-22T01:23:25.634Z,22.62
2023-05-22T01:24:25.778Z,22.61
2023-05-22T01:25:25.747Z,22.61
2023-05-22T01:26:25.829Z,22.61
2023-05-22T01:27:26.242Z,22.61
2023-05-22T01:28:25.975Z,22.60
2023-05-22T01:29:26.039Z,22.60
2023-05-22T01:30:26.027Z,22.60
2023-05-22T01:31:26.103Z,22.60
2023-05-22T01:32:26.251Z,22.59
2023-05-22T01:33:26.460Z,22.60
2023-05-22T01:34:26.251Z,22.60
2023-05-22T01:35:26.314Z,22.60
2023-05-22T01:36:26.359Z,22.60
2023-05-22T01:37:26.416Z,22.58
2023-05-22T01:38:26.470Z,22.58
2023-05-22T01:39:26.518Z,22.57
2023-05-22T01:40:26.602Z,22.57
2023-05-22T01:41:26.647Z,22.56
2023-05-22T01:42:26.715Z,22.56
2023-05-22T01:43:26.782Z,22.56
2023-05-22T01:44:26.870Z,22.57
2023-05-22T01:45:27.014Z,22.57
2023-05-22T01:46:27.005Z,22.56
2023-05-22T01:47:27.107Z,22.56
2023-05-22T01:48:27.077Z,22.57
2023-05-22T01:49:27.161Z,22.56
2023-05-22T01:50:27.193Z,22.56
2023-05-22T01:51:27.253Z,22.56
2023-05-22T01:52:27.322Z,22.55
2023-05-22T01:53:27.411Z,22.54
2023-05-22T01:54:27.427Z,22.54
2023-05-22T01:55:27.511Z,22.54
2023-05-22T01:56:27.562Z,22.54
2023-05-22T01:57:27.640Z,22.54
2023-05-22T01:58:27.703Z,22.54
2023-05-22T01:59:27.773Z,22.53
2023-05-22T02:00:27.833Z,22.52
2023-05-22T02:01:27.947Z,22.52
2023-05-22T02:02:27.985Z,22.52
2023-05-22T02:03:28.097Z,22.52
2023-05-22T02:04:28.017Z,22.51
2023-05-22T02:05:28.116Z,22.51
2023-05-22T02:06:28.162Z,22.51
2023-05-22T02:07:28.218Z,22.51
2023-05-22T02:08:28.292Z,22.51
2023-05-22T02:09:28.343Z,22.50
2023-05-22T02:10:28.408Z,22.51
2023-05-22T02:11:28.478Z,22.50
2023-05-22T02:12:28.498Z,22.50
2023-05-22T02:13:28.526Z,22.50
2023-05-22T02:14:28.565Z,22.50
2023-05-22T02:15:28.598Z,22.50
2023-05-22T02:16:28.622Z,22.49
2023-05-22T02:17:28.701Z,22.49
2023-05-22T02:18:28.689Z,22.49
2023-05-22T02:19:29.639Z,22.49
2023-05-22T02:20:28.772Z,22.49
2023-05-22T02:21:28.859Z,22.50
2023-05-22T02:22:28.866Z,22.49
2023-05-22T02:23:28.897Z,22.48
2023-05-22T02:24:28.904Z,22.49
2023-05-22T02:25:28.966Z,22.48
2023-05-22T02:26:28.980Z,22.48
2023-05-22T02:27:29.023Z,22.48
2023-05-22T02:28:29.050Z,22.47
2023-05-22T02:29:29.066Z,22.46
2023-05-22T02:30:29.094Z,22.47
2023-05-22T02:31:29.120Z,22.47
2023-05-22T02:32:29.106Z,22.45
2023-05-22T02:33:29.090Z,22.46
2023-05-22T02:34:29.098Z,22.46
2023-05-22T02:35:29.094Z,22.45
2023-05-22T02:36:29.121Z,22.45
2023-05-22T02:37:29.195Z,22.45
2023-05-22T02:38:29.199Z,22.45
2023-05-22T02:39:29.212Z,22.44
2023-05-22T02:40:30.054Z,22.44
2023-05-22T02:41:29.229Z,22.43
2023-05-22T02:42:29.224Z,22.44
2023-05-22T02:43:29.214Z,22.43
2023-05-22T02:44:29.224Z,22.43
2023-05-22T02:45:29.213Z,22.43
2023-05-22T02:46:29.254Z,22.43
2023-05-22T02:47:29.251Z,22.43
2023-05-22T02:48:29.261Z,22.43
2023-05-22T02:49:29.226Z,22.44
2023-05-22T02:50:29.232Z,22.43
2023-05-22T02:51:29.222Z,22.43
2023-05-22T02:52:29.227Z,22.42
2023-05-22T02:53:29.385Z,22.41
2023-05-22T02:54:29.235Z,22.41
2023-05-22T02:55:29.263Z,22.41
2023-05-22T02:56:29.276Z,22.41
2023-05-22T02:57:29.273Z,22.41
2023-05-22T02:58:29.280Z,22.41
2023-05-22T02:59:29.298Z,22.41
2023-05-22T03:00:29.293Z,22.41
2023-05-22T03:01:29.327Z,22.40
2023-05-22T03:02:29.375Z,22.40
2023-05-22T03:03:29.427Z,22.39
2023-05-22T03:04:29.319Z,22.39
2023-05-22T03:05:29.319Z,22.39
2023-05-22T03:06:29.323Z,22.39
2023-05-22T03:07:29.330Z,22.39
2023-05-22T03:08:29.321Z,22.38
2023-05-22T03:09:29.355Z,22.38
2023-05-22T03:10:29.347Z,22.38
2023-05-22T03:11:29.324Z,22.37
2023-05-22T03:12:29.338Z,22.37
2023-05-22T03:13:29.343Z,22.37
2023-05-22T03:14:29.347Z,22.37
2023-05-22T03:15:29.350Z,22.37
2023-05-22T03:16:29.347Z,22.37
2023-05-22T03:17:29.373Z,22.37
2023-05-22T03:18:29.334Z,22.36
2023-05-22T03:19:29.457Z,22.36
2023-05-22T03:20:29.335Z,22.36
2023-05-22T03:21:29.334Z,22.36
2023-05-22T03:22:29.335Z,22.35
2023-05-22T03:23:29.334Z,22.34
2023-05-22T03:24:29.335Z,22.35
2023-05-22T03:25:29.369Z,22.35
2023-05-22T03:26:29.346Z,22.35
2023-05-22T03:27:29.334Z,22.35
2023-05-22T03:28:29.347Z,22.34
2023-05-22T03:29:29.343Z,22.34
2023-05-22T03:30:29.348Z,22.35
2023-05-22T03:31:29.348Z,22.35
2023-05-22T03:32:29.389Z,22.34
2023-05-22T03:33:29.393Z,22.35
2023-05-22T03:34:29.354Z,22.33
2023-05-22T03:35:29.354Z,22.34
2023-05-22T03:36:32.387Z,22.34
2023-05-22T03:37:29.358Z,22.34
2023-05-22T03:38:29.372Z,22.34
2023-05-22T03:39:29.351Z,22.33
2023-05-22T03:40:29.354Z,22.33
2023-05-22T03:41:29.423Z,22.33
2023-05-22T03:42:29.341Z,22.31
2023-05-22T03:43:29.340Z,22.31
2023-05-22T03:44:29.331Z,22.32
2023-05-22T03:45:29.348Z,22.32
2023-05-22T03:46:29.572Z,22.31
2023-05-22T03:47:29.322Z,22.30
2023-05-22T03:48:29.319Z,22.31
2023-05-22T03:49:29.319Z,22.30
2023-05-22T03:50:29.311Z,22.31
2023-05-22T03:51:29.312Z,22.31
2023-05-22T03:52:29.309Z,22.30
2023-05-22T03:53:29.307Z,22.30
2023-05-22T03:54:29.312Z,22.30
2023-05-22T03:55:29.307Z,22.29
2023-05-22T03:56:29.312Z,22.30
2023-05-22T03:57:29.336Z,22.29
2023-05-22T03:58:29.311Z,22.30
2023-05-22T03:59:29.318Z,22.29
2023-05-22T04:00:29.309Z,22.29
2023-05-22T04:01:29.313Z,22.30
2023-05-22T04:02:29.367Z,22.29
2023-05-22T04:03:29.380Z,22.30
2023-05-22T04:04:29.307Z,22.29
2023-05-22T04:05:29.382Z,22.28
2023-05-22T04:06:29.303Z,22.28
2023-05-22T04:07:29.291Z,22.29
2023-05-22T04:08:29.294Z,22.28
2023-05-22T04:09:29.277Z,22.28
2023-05-22T04:10:29.278Z,22.28
2023-05-22T04:11:29.289Z,22.28
2023-05-22T04:12:29.289Z,22.28
2023-05-22T04:13:29.308Z,22.28
2023-05-22T04:14:29.294Z,22.27
2023-05-22T04:15:29.296Z,22.27
2023-05-22T04:16:29.392Z,22.26
2023-05-22T04:17:29.319Z,22.26
2023-05-22T04:18:29.318Z,22.26
2023-05-22T04:19:29.420Z,22.25
2023-05-22T04:20:29.300Z,22.26
2023-05-22T04:21:29.298Z,22.25
2023-05-22T04:22:29.301Z,22.25
2023-05-22T04:23:29.318Z,22.25
2023-05-22T04:24:29.280Z,22.24
2023-05-22T04:25:29.282Z,22.24
2023-05-22T04:26:29.268Z,22.24
2023-05-22T04:27:29.270Z,22.24
2023-05-22T04:28:29.250Z,22.24
2023-05-22T04:29:29.277Z,22.24
2023-05-22T04:30:29.229Z,22.24
2023-05-22T04:31:29.284Z,22.25
2023-05-22T04:32:29.264Z,22.24
2023-05-22T04:33:29.229Z,22.24
2023-05-22T04:34:29.224Z,22.25
2023-05-22T04:35:29.216Z,22.24
2023-05-22T04:36:29.215Z,22.24
2023-05-22T04:37:29.210Z,22.23
2023-05-22T04:38:29.187Z,22.23
2023-05-22T04:39:29.189Z,22.23
2023-05-22T04:40:29.181Z,22.22
2023-05-22T04:41:29.174Z,22.21
2023-05-22T04:42:29.170Z,22.22
2023-05-22T04:43:29.161Z,22.22
2023-05-22T04:44:29.154Z,22.21
2023-05-22T04:45:29.233Z,22.22
2023-05-22T04:46:29.188Z,22.22
2023-05-22T04:47:29.149Z,22.21
2023-05-22T04:48:29.123Z,22.21
2023-05-22T04:49:29.115Z,22.21
2023-05-22T04:50:29.125Z,22.21
2023-05-22T04:51:29.139Z,22.20
2023-05-22T04:52:29.103Z,22.20
2023-05-22T04:53:29.105Z,22.20
2023-05-22T04:54:29.100Z,22.20
2023-05-22T04:55:29.095Z,22.20
2023-05-22T04:56:36.200Z,22.21
2023-05-22T04:57:29.092Z,22.20
2023-05-22T04:58:29.084Z,22.21
2023-05-22T04:59:29.078Z,22.20
2023-05-22T05:00:29.078Z,22.20
2023-05-22T05:01:30.978Z,22.20
2023-05-22T05:02:29.169Z,22.19
2023-05-22T05:03:29.109Z,22.20
2023-05-22T05:04:29.057Z,22.20
2023-05-22T05:05:29.055Z,22.20
2023-05-22T05:06:29.057Z,22.20
2023-05-22T05:07:29.052Z,22.21
2023-05-22T05:08:29.043Z,22.20
2023-05-22T05:09:29.046Z,22.19
2023-05-22T05:10:29.051Z,22.18
2023-05-22T05:11:29.049Z,22.17
2023-05-22T05:12:29.045Z,22.16
2023-05-22T05:13:29.055Z,22.14
2023-05-22T05:14:29.111Z,22.11
2023-05-22T05:15:29.043Z,22.10
2023-05-22T05:16:29.077Z,22.10
2023-05-22T05:17:29.188Z,22.10
2023-05-22T05:18:29.031Z,22.08
2023-05-22T05:19:29.114Z,22.08
2023-05-22T05:20:29.041Z,22.08
2023-05-22T05:21:29.037Z,22.08
2023-05-22T05:22:29.041Z,22.08
2023-05-22T05:23:29.024Z,22.08
2023-05-22T05:24:29.043Z,22.08
2023-05-22T05:25:29.026Z,22.08
2023-05-22T05:26:29.017Z,22.07
2023-05-22T05:27:29.017Z,22.06
2023-05-22T05:28:29.037Z,22.07
2023-05-22T05:29:29.012Z,22.07
2023-05-22T05:30:29.042Z,22.07
2023-05-22T05:31:29.177Z,22.07
2023-05-22T05:32:29.036Z,22.08
2023-05-22T05:33:29.040Z,22.07
2023-05-22T05:34:29.009Z,22.08
2023-05-22T05:35:28.990Z,22.09
2023-05-22T05:36:29.000Z,22.11
2023-05-22T05:37:28.972Z,22.12
2023-05-22T05:38:28.965Z,22.13
2023-05-22T05:39:28.964Z,22.13
2023-05-22T05:40:28.979Z,22.14
2023-05-22T05:41:28.971Z,22.15
2023-05-22T05:42:28.958Z,22.16
2023-05-22T05:43:28.958Z,22.16
2023-05-22T05:44:29.158Z,22.16
2023-05-22T05:45:28.939Z,22.18
2023-05-22T05:46:28.954Z,22.18
2023-05-22T05:47:29.155Z,22.19
2023-05-22T05:48:28.926Z,22.20
2023-05-22T05:49:29.155Z,22.21
2023-05-22T05:50:28.928Z,22.22
2023-05-22T05:51:28.978Z,22.23
2023-05-22T05:52:29.121Z,22.24
2023-05-22T05:53:28.905Z,22.27
2023-05-22T05:54:29.622Z,22.29
2023-05-22T05:55:28.894Z,22.31
2023-05-22T05:56:29.139Z,22.32
2023-05-22T05:57:28.929Z,22.33
2023-05-22T05:58:32.071Z,22.35
2023-05-22T05:59:44.468Z,22.35
2023-05-22T06:00:28.881Z,22.35
2023-05-22T06:01:32.320Z,22.37
2023-05-22T06:03:37.436Z,22.38
2023-05-22T06:05:54.358Z,22.35
2023-05-22T06:06:47.813Z,22.37
2023-05-22T06:08:03.370Z,22.39
2023-05-22T06:08:47.813Z,22.39
2023-05-22T06:09:55.272Z,22.40
2023-05-22T06:10:47.880Z,22.40
2023-05-22T06:13:03.468Z,22.40
2023-05-22T06:13:47.838Z,22.40
2023-05-22T06:14:47.952Z,22.41
2023-05-22T06:17:03.528Z,22.41
2023-05-22T06:17:49.082Z,22.41
2023-05-22T06:18:47.969Z,22.41
2023-05-22T06:19:48.069Z,22.43
2023-05-22T06:20:47.967Z,22.42
2023-05-22T06:22:04.071Z,22.43
2023-05-22T06:22:47.953Z,22.42
2023-05-22T06:23:47.965Z,22.43
2023-05-22T06:24:47.972Z,22.44
2023-05-22T06:25:47.977Z,22.45
2023-05-22T06:26:48.637Z,22.46
2023-05-22T06:27:48.001Z,22.45
2023-05-22T06:28:48.016Z,22.46
2023-05-22T06:29:48.139Z,22.46
2023-05-22T06:30:48.351Z,22.47
2023-05-22T06:31:48.077Z,22.47
2023-05-22T06:32:48.565Z,22.48
2023-05-22T06:33:48.106Z,22.48
2023-05-22T06:34:48.099Z,22.49
2023-05-22T06:35:48.080Z,22.50
2023-05-22T06:36:48.613Z,22.50
2023-05-22T06:37:48.204Z,22.51
2023-05-22T06:38:48.110Z,22.51
2023-05-22T06:39:51.351Z,22.52
2023-05-22T06:40:48.139Z,22.53
2023-05-22T06:41:48.142Z,22.53
2023-05-22T06:42:48.160Z,22.53
2023-05-22T06:43:48.258Z,22.54
2023-05-22T06:44:48.184Z,22.55
2023-05-22T06:45:48.355Z,22.55
2023-05-22T06:46:48.213Z,22.57
2023-05-22T06:47:48.477Z,22.57
2023-05-22T06:48:48.273Z,22.58
2023-05-22T06:49:51.443Z,22.58
2023-05-22T06:50:48.277Z,22.57
2023-05-22T06:51:48.334Z,22.59
2023-05-22T06:52:48.397Z,22.59
2023-05-22T06:53:48.605Z,22.59
2023-05-22T06:54:48.322Z,22.59
2023-05-22T06:55:48.357Z,22.60
2023-05-22T06:56:49.355Z,22.61
2023-05-22T06:57:48.411Z,22.62
2023-05-22T06:58:48.370Z,22.62
2023-05-22T06:59:48.522Z,22.63
2023-05-22T07:00:48.687Z,22.63
2023-05-22T07:01:51.589Z,22.64
2023-05-22T07:02:49.119Z,22.64
2023-05-22T07:03:48.438Z,22.65
2023-05-22T07:04:48.412Z,22.66
2023-05-22T07:05:48.476Z,22.67
2023-05-22T07:06:48.431Z,22.67
2023-05-22T07:07:48.463Z,22.67
2023-05-22T07:08:48.446Z,22.68
2023-05-22T07:09:48.587Z,22.69
2023-05-22T07:10:49.079Z,22.70
2023-05-22T07:11:48.475Z,22.70
2023-05-22T07:12:48.906Z,22.72
2023-05-22T07:13:48.477Z,22.72
2023-05-22T07:14:51.700Z,22.73
2023-05-22T07:15:48.498Z,22.73
2023-05-22T07:16:48.618Z,22.74
2023-05-22T07:17:48.516Z,22.74
2023-05-22T07:18:49.002Z,22.75
2023-05-22T07:19:48.504Z,22.76
2023-05-22T07:20:48.516Z,22.77
2023-05-22T07:21:49.524Z,22.78
2023-05-22T07:22:48.504Z,22.79
2023-05-22T07:23:48.901Z,22.79
2023-05-22T07:24:48.520Z,22.80
2023-05-22T07:25:48.739Z,22.81
2023-05-22T07:26:48.536Z,22.81
2023-05-22T07:27:48.545Z,22.82
2023-05-22T07:28:48.904Z,22.82
2023-05-22T07:29:48.555Z,22.82
2023-05-22T07:30:49.550Z,22.83
2023-05-22T07:31:48.639Z,22.84
2023-05-22T07:32:48.600Z,22.85
2023-05-22T07:33:49.905Z,22.86
2023-05-22T07:34:51.779Z,22.87
2023-05-22T07:37:48.585Z,22.89
2023-05-22T07:38:48.929Z,22.95
2023-05-22T07:39:48.581Z,22.98
2023-05-22T07:40:48.577Z,23.01
2023-05-22T07:42:57.043Z,23.05
2023-05-22T07:43:48.923Z,23.07
2023-05-22T07:44:56.032Z,23.10
2023-05-22T07:45:51.779Z,23.11
2023-05-22T07:46:48.590Z,23.14
2023-05-22T07:48:04.613Z,23.17
2023-05-22T07:48:48.567Z,23.20
2023-05-22T07:49:52.111Z,23.23
2023-05-22T07:50:48.501Z,23.27
2023-05-22T07:52:55.949Z,23.34
2023-05-22T07:53:51.675Z,23.36
2023-05-22T07:54:49.979Z,23.38
2023-05-22T07:55:49.561Z,23.42
2023-05-22T07:56:48.629Z,23.45
2023-05-22T07:57:48.714Z,23.50
2023-05-22T07:58:49.019Z,23.54
2023-05-22T07:59:48.780Z,23.58
2023-05-22T08:00:48.843Z,23.62
2023-05-22T08:01:48.881Z,23.66
2023-05-22T08:02:49.517Z,23.70
2023-05-22T08:03:49.578Z,23.74
2023-05-22T08:04:49.493Z,23.78
2023-05-22T08:05:49.280Z,23.80
2023-05-22T08:06:49.047Z,23.85
2023-05-22T08:07:49.081Z,23.87
2023-05-22T08:08:49.422Z,23.90
2023-05-22T08:09:49.137Z,23.93
2023-05-22T08:11:51.362Z,23.96
2023-05-22T08:12:49.175Z,24.00
2023-05-22T08:13:49.424Z,24.02
2023-05-22T08:14:49.142Z,24.05
2023-05-22T08:15:49.131Z,24.08
2023-05-22T08:16:50.146Z,24.10
2023-05-22T08:17:49.120Z,24.12
2023-05-22T08:18:49.478Z,24.15
2023-05-22T08:19:49.171Z,24.18
2023-05-22T08:20:49.033Z,24.20
2023-05-22T08:21:49.016Z,24.23
2023-05-22T08:22:52.221Z,24.25
2023-05-22T08:23:49.429Z,24.27
2023-05-22T08:24:49.093Z,24.29
2023-05-22T08:25:49.975Z,24.31
2023-05-22T08:26:48.942Z,24.33
2023-05-22T08:27:48.914Z,24.37
2023-05-22T08:28:48.921Z,24.38
2023-05-22T08:29:48.890Z,24.42
2023-05-22T08:30:48.892Z,24.44
2023-05-22T08:31:48.934Z,24.45
2023-05-22T08:32:48.976Z,24.47
2023-05-22T08:33:48.803Z,24.49
2023-05-22T08:34:48.782Z,24.51
2023-05-22T08:35:48.777Z,24.52
2023-05-22T08:36:48.739Z,24.53
2023-05-22T08:37:48.719Z,24.55
2023-05-22T08:38:48.934Z,24.56
2023-05-22T08:39:48.693Z,24.58
2023-05-22T08:40:51.890Z,24.59
2023-05-22T08:41:51.835Z,24.62
2023-05-22T08:42:48.676Z,24.66
2023-05-22T08:43:48.952Z,24.69
2023-05-22T08:44:48.606Z,24.71
2023-05-22T08:45:48.576Z,24.73
2023-05-22T08:46:48.620Z,24.75
2023-05-22T08:47:49.002Z,24.78
2023-05-22T08:48:48.514Z,24.79
2023-05-22T08:49:48.465Z,24.81
2023-05-22T08:50:48.442Z,24.82
2023-05-22T08:51:48.413Z,24.85
2023-05-22T08:52:48.435Z,24.87
2023-05-22T08:53:48.344Z,24.89
2023-05-22T08:54:48.322Z,24.92
2023-05-22T08:55:48.358Z,24.93
2023-05-22T08:56:56.312Z,24.95
2023-05-22T08:57:48.430Z,24.97
2023-05-22T08:58:48.208Z,24.99
2023-05-22T08:59:48.200Z,25.02
2023-05-22T09:00:48.193Z,25.04
2023-05-22T09:01:48.148Z,25.06
2023-05-22T09:02:48.670Z,25.08
2023-05-22T09:03:48.472Z,25.10
2023-05-22T09:04:48.056Z,25.12
2023-05-22T09:05:48.034Z,25.15
2023-05-22T09:06:47.992Z,25.17
2023-05-22T09:07:48.438Z,25.18
2023-05-22T09:08:50.710Z,25.21
2023-05-22T09:09:47.942Z,25.22
2023-05-22T09:10:47.895Z,25.25
2023-05-22T09:11:47.945Z,25.27
2023-05-22T09:12:47.788Z,25.29
2023-05-22T09:13:47.762Z,25.31
2023-05-22T09:14:51.882Z,25.32
2023-05-22T09:15:47.716Z,25.34
2023-05-22T09:16:47.764Z,25.37
2023-05-22T09:17:47.670Z,25.39
2023-05-22T09:18:47.774Z,25.42
2023-05-22T09:19:47.585Z,25.44
2023-05-22T09:20:47.943Z,25.47
2023-05-22T09:21:48.180Z,25.50
2023-05-22T09:22:47.494Z,25.52
2023-05-22T09:23:47.454Z,25.54
2023-05-22T09:24:47.445Z,25.57
2023-05-22T09:25:47.901Z,25.59
2023-05-22T09:26:47.442Z,25.61
2023-05-22T09:27:47.316Z,25.62
2023-05-22T09:28:47.448Z,25.65
2023-05-22T09:29:47.268Z,25.68
2023-05-22T09:30:47.247Z,25.71
2023-05-22T09:31:47.353Z,25.73
2023-05-22T09:32:47.214Z,25.75
2023-05-22T09:33:47.480Z,25.76
2023-05-22T09:34:47.125Z,25.78
2023-05-22T09:35:47.447Z,25.79
2023-05-22T09:36:47.062Z,25.80
2023-05-22T09:37:50.186Z,25.82
2023-05-22T09:38:54.354Z,25.84
2023-05-22T09:39:54.335Z,25.85
2023-05-22T09:40:46.966Z,25.86
2023-05-22T09:42:46.781Z,25.90
2023-05-22T09:43:46.742Z,25.93
2023-05-22T09:44:47.723Z,25.97
2023-05-22T09:45:47.246Z,25.99
2023-05-22T09:46:46.690Z,26.04
2023-05-22T09:47:46.617Z,26.06
2023-05-22T09:48:46.561Z,26.08
2023-05-22T09:49:46.525Z,26.11
2023-05-22T09:50:46.595Z,26.12
2023-05-22T09:51:46.498Z,26.14
2023-05-22T09:52:46.424Z,26.15
2023-05-22T09:53:46.460Z,26.18
2023-05-22T09:54:46.364Z,26.20
2023-05-22T09:55:46.387Z,26.21
2023-05-22T09:56:46.415Z,26.24
2023-05-22T09:57:46.462Z,26.26
2023-05-22T09:58:46.467Z,26.28
2023-05-22T09:59:46.479Z,26.30
2023-05-22T10:00:49.764Z,26.31
2023-05-22T10:01:46.501Z,26.33
2023-05-22T10:02:46.469Z,26.34
2023-05-22T10:03:48.701Z,26.36
2023-05-22T10:04:46.444Z,26.38
2023-05-22T10:05:46.296Z,26.40
2023-05-22T10:06:46.302Z,26.42
2023-05-22T10:07:46.468Z,26.45
2023-05-22T10:08:46.190Z,26.46
2023-05-22T10:09:46.496Z,26.47
2023-05-22T10:10:46.085Z,26.48
2023-05-22T10:11:46.042Z,26.50
2023-05-22T10:12:46.487Z,26.52
2023-05-22T10:13:45.960Z,26.53
2023-05-22T10:14:45.965Z,26.54
2023-05-22T10:15:45.908Z,26.56
2023-05-22T10:16:45.871Z,26.59
2023-05-22T10:17:46.293Z,26.60
2023-05-22T10:18:45.777Z,26.61
2023-05-22T10:20:44.632Z,26.66
2023-05-22T10:21:45.581Z,26.68
2023-05-22T10:22:45.700Z,26.71
2023-05-22T10:23:45.981Z,26.72
2023-05-22T10:24:45.490Z,26.73
2023-05-22T10:25:45.376Z,26.75
2023-05-22T10:26:45.312Z,26.77
2023-05-22T10:27:45.296Z,26.79
2023-05-22T10:28:45.617Z,26.80
2023-05-22T10:29:45.183Z,26.83
2023-05-22T10:30:45.134Z,26.85
2023-05-22T10:31:45.061Z,26.88
2023-05-22T10:32:45.926Z,26.89
2023-05-22T10:33:45.006Z,26.90
2023-05-22T10:34:45.001Z,26.92
2023-05-22T10:35:44.873Z,26.95
2023-05-22T10:36:46.001Z,26.96
2023-05-22T10:37:44.803Z,26.99
2023-05-22T10:38:44.861Z,27.00
2023-05-22T10:39:44.974Z,27.02
2023-05-22T10:40:44.900Z,27.04
2023-05-22T10:41:44.605Z,27.07
2023-05-22T10:42:44.530Z,27.09
2023-05-22T10:43:44.495Z,27.10
2023-05-22T10:44:44.433Z,27.12
2023-05-22T10:45:45.514Z,27.13
2023-05-22T10:46:44.312Z,27.14
2023-05-22T10:47:44.360Z,27.15
2023-05-22T10:48:44.212Z,27.17
2023-05-22T10:49:44.154Z,27.19
2023-05-22T10:50:44.102Z,27.21
2023-05-22T10:51:44.044Z,27.22
2023-05-22T10:52:44.499Z,27.24
2023-05-22T10:53:44.386Z,27.26
2023-05-22T10:54:44.013Z,27.27
2023-05-22T10:55:43.819Z,27.28
2023-05-22T10:56:43.772Z,27.30
2023-05-22T10:57:43.733Z,27.32
2023-05-22T10:58:43.649Z,27.33
2023-05-22T10:59:43.587Z,27.34
2023-05-22T11:00:43.558Z,27.36
2023-05-22T11:01:43.492Z,27.37
2023-05-22T11:02:44.028Z,27.39
2023-05-22T11:03:46.695Z,27.40
2023-05-22T11:04:43.370Z,27.41
2023-05-22T11:06:43.251Z,27.44
2023-05-22T11:07:43.509Z,27.46
2023-05-22T11:08:43.142Z,27.47
2023-05-22T11:09:43.060Z,27.48
2023-05-22T11:10:43.129Z,27.49
2023-05-22T11:11:42.951Z,27.50
2023-05-22T11:12:43.429Z,27.52
2023-05-22T11:13:42.827Z,27.53
2023-05-22T11:14:42.991Z,27.54
2023-05-22T11:15:43.719Z,27.55
2023-05-22T11:16:42.697Z,27.54
2023-05-22T11:17:42.639Z,27.54
2023-05-22T11:19:42.269Z,27.50
2023-05-22T11:20:42.759Z,27.51
2023-05-22T11:21:42.384Z,27.50
2023-05-22T11:22:42.525Z,27.50
2023-05-22T11:23:42.296Z,27.49
2023-05-22T11:24:42.499Z,27.49
2023-05-22T11:25:42.171Z,27.48
2023-05-22T11:26:43.465Z,27.47
2023-05-22T11:27:42.039Z,27.47
2023-05-22T11:28:41.968Z,27.46
2023-05-22T11:29:42.504Z,27.46
2023-05-22T11:30:42.918Z,27.46
2023-05-22T11:31:41.843Z,27.47
2023-05-22T11:32:41.750Z,27.47
2023-05-22T11:33:41.992Z,27.47
2023-05-22T11:34:41.606Z,27.48
2023-05-22T11:35:41.639Z,27.48
2023-05-22T11:36:41.558Z,27.48
2023-05-22T11:37:41.508Z,27.49
2023-05-22T11:38:41.504Z,27.50
2023-05-22T11:39:41.607Z,27.51
2023-05-22T11:40:41.579Z,27.51
2023-05-22T11:41:41.337Z,27.51
2023-05-22T11:42:41.452Z,27.53
2023-05-22T11:43:41.264Z,27.53
2023-05-22T11:44:41.246Z,27.53
2023-05-22T11:45:41.201Z,27.53
2023-05-22T11:46:41.168Z,27.53
2023-05-22T11:47:41.152Z,27.53
2023-05-22T11:48:41.510Z,27.53
2023-05-22T11:49:41.064Z,27.54
2023-05-22T11:50:43.363Z,27.54
2023-05-22T11:51:41.026Z,27.55
2023-05-22T11:52:40.877Z,27.58
2023-05-22T11:53:41.011Z,27.61
2023-05-22T11:54:40.765Z,27.61
2023-05-22T11:55:40.794Z,27.62
2023-05-22T11:56:41.692Z,27.62
2023-05-22T11:57:40.626Z,27.62
2023-05-22T11:58:40.650Z,27.64
2023-05-22T11:59:40.467Z,27.65
2023-05-22T12:00:40.548Z,27.66
2023-05-22T12:01:47.742Z,27.66
2023-05-22T12:02:40.707Z,27.68
2023-05-22T12:03:40.390Z,27.70
2023-05-22T12:04:40.176Z,27.71
2023-05-22T12:05:40.098Z,27.73
2023-05-22T12:06:40.110Z,27.73
2023-05-22T12:07:47.327Z,27.74
2023-05-22T12:08:41.006Z,27.74
2023-05-22T12:09:39.803Z,27.76
2023-05-22T12:10:40.382Z,27.78
2023-05-22T12:11:39.694Z,27.79
2023-05-22T12:12:40.010Z,27.80
2023-05-22T12:13:39.553Z,27.80
2023-05-22T12:14:39.598Z,27.81
2023-05-22T12:15:39.418Z,27.82
2023-05-22T12:16:40.240Z,27.86
2023-05-22T12:17:39.359Z,27.88
2023-05-22T12:18:39.537Z,27.89
2023-05-22T12:19:39.205Z,27.90
2023-05-22T12:20:39.395Z,27.92
2023-05-22T12:21:39.177Z,27.93
2023-05-22T12:22:42.371Z,27.94
2023-05-22T12:23:39.114Z,27.95
2023-05-22T12:24:39.055Z,27.96
2023-05-22T12:25:39.004Z,27.97
2023-05-22T12:26:38.941Z,27.98
2023-05-22T12:27:38.897Z,28.00
2023-05-22T12:28:39.080Z,28.01
2023-05-22T12:29:38.747Z,28.02
2023-05-22T12:30:39.414Z,28.03
2023-05-22T12:31:39.005Z,28.04
2023-05-22T12:32:38.570Z,28.06
2023-05-22T12:33:38.541Z,28.05
2023-05-22T12:34:38.448Z,28.07
2023-05-22T12:35:38.391Z,28.07
2023-05-22T12:36:38.313Z,28.08
2023-05-22T12:37:38.254Z,28.09
2023-05-22T12:38:38.546Z,28.10
2023-05-22T12:39:38.142Z,28.12
2023-05-22T12:40:38.281Z,28.13
2023-05-22T12:41:38.118Z,28.13
2023-05-22T12:42:48.906Z,28.13
2023-05-22T12:43:49.857Z,28.15
2023-05-22T12:44:49.848Z,28.16
2023-05-22T12:45:49.952Z,28.17
2023-05-22T12:46:49.838Z,28.17
2023-05-22T12:47:50.088Z,28.19
2023-05-22T12:48:49.769Z,28.20
2023-05-22T12:49:49.754Z,28.20
2023-05-22T12:50:49.743Z,28.22
2023-05-22T12:51:49.721Z,28.23
2023-05-22T12:52:49.693Z,28.24
2023-05-22T12:53:50.141Z,28.25
2023-05-22T12:54:49.649Z,28.26
2023-05-22T12:55:49.630Z,28.27
2023-05-22T12:56:49.609Z,28.28
2023-05-22T12:57:49.603Z,28.26
2023-05-22T12:58:49.577Z,28.25
2023-05-22T12:59:49.565Z,28.24
2023-05-22T13:00:49.538Z,28.25
2023-05-22T13:01:49.758Z,28.26
2023-05-22T13:02:49.663Z,28.28
2023-05-22T13:03:49.575Z,28.30
2023-05-22T13:04:49.512Z,28.32
2023-05-22T13:05:49.441Z,28.33